sensor_id;sensor_type;location;lat;lon;timestamp;P1;durP1;ratioP1;P2;durP2;ratioP2
31782;SDS011;18351;47.560;9.708;2022-11-15T00:01:35;3.35;;;2.72;;
31782;SDS011;18351;47.560;9.708;2022-11-15T00:04:04;2.70;;;2.50;;
31782;SDS011;18351;47.560;9.708;2022-11-15T00:06:30;3.88;;;2.05;;
31782;SDS011;18351;47.560;9.708;2022-11-15T00:08:57;2.42;;;2.22;;
31782;SDS011;18351;47.560;9.708;2022-11-15T00:11:24;4.78;;;2.75;;
31782;SDS011;18351;47.560;9.708;2022-11-15T00:13:50;3.15;;;2.65;;
31782;SDS011;18351;47.560;9.708;2022-11-15T00:16:15;5.28;;;2.75;;
31782;SDS011;18351;47.560;9.708;2022-11-15T00:18:41;2.65;;;2.30;;
31782;SDS011;18351;47.560;9.708;2022-11-15T00:21:10;3.92;;;2.40;;
31782;SDS011;18351;47.560;9.708;2022-11-15T00:23:37;2.78;;;2.17;;
31782;SDS011;18351;47.560;9.708;2022-11-15T00:26:03;3.95;;;2.92;;
31782;SDS011;18351;47.560;9.708;2022-11-15T00:28:29;3.58;;;2.60;;
31782;SDS011;18351;47.560;9.708;2022-11-15T00:31:04;3.78;;;2.80;;
31782;SDS011;18351;47.560;9.708;2022-11-15T00:33:35;2.58;;;2.22;;
31782;SDS011;18351;47.560;9.708;2022-11-15T00:36:02;4.82;;;2.65;;
31782;SDS011;18351;47.560;9.708;2022-11-15T00:38:36;3.13;;;2.35;;
31782;SDS011;18351;47.560;9.708;2022-11-15T00:41:03;2.83;;;2.45;;
31782;SDS011;18351;47.560;9.708;2022-11-15T00:43:30;3.35;;;2.63;;
31782;SDS011;18351;47.560;9.708;2022-11-15T00:45:56;3.70;;;2.92;;
31782;SDS011;18351;47.560;9.708;2022-11-15T00:48:21;5.65;;;2.55;;
31782;SDS011;18351;47.560;9.708;2022-11-15T00:50:47;4.22;;;2.67;;
31782;SDS011;18351;47.560;9.708;2022-11-15T00:53:14;3.22;;;2.70;;
31782;SDS011;18351;47.560;9.708;2022-11-15T00:55:39;4.97;;;3.22;;
31782;SDS011;18351;47.560;9.708;2022-11-15T00:58:05;3.13;;;2.80;;
31782;SDS011;18351;47.560;9.708;2022-11-15T01:00:30;3.97;;;3.50;;
31782;SDS011;18351;47.560;9.708;2022-11-15T01:02:56;2.95;;;2.58;;
31782;SDS011;18351;47.560;9.708;2022-11-15T01:05:21;3.90;;;3.50;;
31782;SDS011;18351;47.560;9.708;2022-11-15T01:07:51;3.53;;;3.00;;
31782;SDS011;18351;47.560;9.708;2022-11-15T01:10:20;4.25;;;3.28;;
31782;SDS011;18351;47.560;9.708;2022-11-15T01:12:47;7.28;;;3.58;;
31782;SDS011;18351;47.560;9.708;2022-11-15T01:15:13;5.13;;;3.25;;
31782;SDS011;18351;47.560;9.708;2022-11-15T01:17:38;10.13;;;3.65;;
31782;SDS011;18351;47.560;9.708;2022-11-15T01:20:04;4.50;;;3.33;;
31782;SDS011;18351;47.560;9.708;2022-11-15T01:22:30;3.42;;;3.13;;
31782;SDS011;18351;47.560;9.708;2022-11-15T01:24:55;4.82;;;3.95;;
31782;SDS011;18351;47.560;9.708;2022-11-15T01:27:21;7.60;;;4.50;;
31782;SDS011;18351;47.560;9.708;2022-11-15T01:29:47;4.68;;;3.78;;
31782;SDS011;18351;47.560;9.708;2022-11-15T01:32:12;5.45;;;4.43;;
31782;SDS011;18351;47.560;9.708;2022-11-15T01:34:38;6.55;;;4.55;;
31782;SDS011;18351;47.560;9.708;2022-11-15T01:37:03;9.60;;;4.57;;
31782;SDS011;18351;47.560;9.708;2022-11-15T01:39:29;8.18;;;4.03;;
31782;SDS011;18351;47.560;9.708;2022-11-15T01:41:55;5.85;;;4.28;;
31782;SDS011;18351;47.560;9.708;2022-11-15T01:47:07;6.57;;;4.53;;
31782;SDS011;18351;47.560;9.708;2022-11-15T01:49:41;7.18;;;4.50;;
31782;SDS011;18351;47.560;9.708;2022-11-15T01:52:19;9.27;;;5.05;;
31782;SDS011;18351;47.560;9.708;2022-11-15T01:54:47;10.88;;;4.90;;
31782;SDS011;18351;47.560;9.708;2022-11-15T01:57:17;9.90;;;6.28;;
31782;SDS011;18351;47.560;9.708;2022-11-15T01:59:43;9.63;;;5.03;;
31782;SDS011;18351;47.560;9.708;2022-11-15T02:02:10;7.55;;;5.57;;
31782;SDS011;18351;47.560;9.708;2022-11-15T02:04:43;6.95;;;4.75;;
31782;SDS011;18351;47.560;9.708;2022-11-15T02:07:12;8.02;;;4.93;;
31782;SDS011;18351;47.560;9.708;2022-11-15T02:09:40;8.57;;;5.82;;
31782;SDS011;18351;47.560;9.708;2022-11-15T02:12:07;9.05;;;6.15;;
31782;SDS011;18351;47.560;9.708;2022-11-15T02:14:34;12.10;;;6.28;;
31782;SDS011;18351;47.560;9.708;2022-11-15T02:17:10;8.93;;;5.75;;
31782;SDS011;18351;47.560;9.708;2022-11-15T02:23:03;9.20;;;6.20;;
31782;SDS011;18351;47.560;9.708;2022-11-15T02:36:40;11.88;;;7.72;;
31782;SDS011;18351;47.560;9.708;2022-11-15T02:39:28;10.50;;;7.90;;
31782;SDS011;18351;47.560;9.708;2022-11-15T02:42:05;10.43;;;8.18;;
31782;SDS011;18351;47.560;9.708;2022-11-15T02:44:56;12.00;;;8.57;;
31782;SDS011;18351;47.560;9.708;2022-11-15T02:47:25;11.13;;;8.25;;
31782;SDS011;18351;47.560;9.708;2022-11-15T02:49:57;12.80;;;9.30;;
31782;SDS011;18351;47.560;9.708;2022-11-15T02:52:25;21.70;;;9.13;;
31782;SDS011;18351;47.560;9.708;2022-11-15T02:54:52;17.23;;;9.35;;
31782;SDS011;18351;47.560;9.708;2022-11-15T03:00:18;13.45;;;9.20;;
31782;SDS011;18351;47.560;9.708;2022-11-15T03:08:54;13.43;;;9.05;;
31782;SDS011;18351;47.560;9.708;2022-11-15T03:11:27;14.80;;;8.93;;
31782;SDS011;18351;47.560;9.708;2022-11-15T03:13:59;11.02;;;7.93;;
31782;SDS011;18351;47.560;9.708;2022-11-15T03:16:47;12.73;;;9.45;;
31782;SDS011;18351;47.560;9.708;2022-11-15T03:21:49;12.00;;;8.30;;
31782;SDS011;18351;47.560;9.708;2022-11-15T03:24:17;13.30;;;9.05;;
31782;SDS011;18351;47.560;9.708;2022-11-15T03:26:45;9.20;;;7.15;;
31782;SDS011;18351;47.560;9.708;2022-11-15T03:29:15;12.85;;;8.73;;
31782;SDS011;18351;47.560;9.708;2022-11-15T03:31:45;11.10;;;7.95;;
31782;SDS011;18351;47.560;9.708;2022-11-15T03:36:44;17.02;;;11.25;;
31782;SDS011;18351;47.560;9.708;2022-11-15T03:39:10;15.15;;;10.20;;
31782;SDS011;18351;47.560;9.708;2022-11-15T03:41:43;17.23;;;10.73;;
31782;SDS011;18351;47.560;9.708;2022-11-15T03:44:16;16.17;;;10.90;;
31782;SDS011;18351;47.560;9.708;2022-11-15T03:47:13;15.52;;;10.48;;
31782;SDS011;18351;47.560;9.708;2022-11-15T03:49:46;17.52;;;10.73;;
31782;SDS011;18351;47.560;9.708;2022-11-15T03:52:21;14.32;;;10.05;;
31782;SDS011;18351;47.560;9.708;2022-11-15T03:54:48;17.25;;;11.05;;
31782;SDS011;18351;47.560;9.708;2022-11-15T03:57:21;16.77;;;10.93;;
31782;SDS011;18351;47.560;9.708;2022-11-15T03:59:47;18.55;;;9.98;;
31782;SDS011;18351;47.560;9.708;2022-11-15T04:02:12;15.20;;;11.05;;
31782;SDS011;18351;47.560;9.708;2022-11-15T04:04:38;15.00;;;10.75;;
31782;SDS011;18351;47.560;9.708;2022-11-15T04:07:04;16.95;;;11.60;;
31782;SDS011;18351;47.560;9.708;2022-11-15T04:09:30;17.40;;;11.55;;
31782;SDS011;18351;47.560;9.708;2022-11-15T04:11:55;19.48;;;12.75;;
31782;SDS011;18351;47.560;9.708;2022-11-15T04:14:21;20.67;;;14.07;;
31782;SDS011;18351;47.560;9.708;2022-11-15T04:16:47;21.65;;;13.70;;
31782;SDS011;18351;47.560;9.708;2022-11-15T04:19:12;22.85;;;14.15;;
31782;SDS011;18351;47.560;9.708;2022-11-15T04:21:56;23.17;;;13.82;;
31782;SDS011;18351;47.560;9.708;2022-11-15T04:27:06;24.83;;;14.73;;
31782;SDS011;18351;47.560;9.708;2022-11-15T04:29:31;29.40;;;15.55;;
31782;SDS011;18351;47.560;9.708;2022-11-15T04:32:01;27.30;;;16.50;;
31782;SDS011;18351;47.560;9.708;2022-11-15T04:34:30;41.63;;;21.55;;
31782;SDS011;18351;47.560;9.708;2022-11-15T04:36:56;70.00;;;24.88;;
31782;SDS011;18351;47.560;9.708;2022-11-15T04:39:38;44.90;;;24.98;;
31782;SDS011;18351;47.560;9.708;2022-11-15T04:42:07;45.80;;;24.48;;
31782;SDS011;18351;47.560;9.708;2022-11-15T04:44:34;38.78;;;23.48;;
31782;SDS011;18351;47.560;9.708;2022-11-15T04:46:59;38.63;;;22.67;;
31782;SDS011;18351;47.560;9.708;2022-11-15T04:49:25;38.13;;;22.10;;
31782;SDS011;18351;47.560;9.708;2022-11-15T04:51:51;40.20;;;24.35;;
31782;SDS011;18351;47.560;9.708;2022-11-15T04:54:17;34.92;;;21.40;;
31782;SDS011;18351;47.560;9.708;2022-11-15T04:56:42;32.70;;;19.35;;
31782;SDS011;18351;47.560;9.708;2022-11-15T04:59:08;28.58;;;18.58;;
31782;SDS011;18351;47.560;9.708;2022-11-15T05:01:33;34.72;;;20.40;;
31782;SDS011;18351;47.560;9.708;2022-11-15T05:03:59;51.92;;;26.27;;
31782;SDS011;18351;47.560;9.708;2022-11-15T05:09:08;32.25;;;19.15;;
31782;SDS011;18351;47.560;9.708;2022-11-15T05:11:34;32.10;;;18.95;;
31782;SDS011;18351;47.560;9.708;2022-11-15T05:13:59;34.85;;;18.05;;
31782;SDS011;18351;47.560;9.708;2022-11-15T05:16:25;33.25;;;16.58;;
31782;SDS011;18351;47.560;9.708;2022-11-15T05:18:51;36.65;;;19.33;;
31782;SDS011;18351;47.560;9.708;2022-11-15T05:21:18;56.10;;;36.80;;
31782;SDS011;18351;47.560;9.708;2022-11-15T05:23:43;54.83;;;31.95;;
31782;SDS011;18351;47.560;9.708;2022-11-15T05:26:09;75.60;;;50.10;;
31782;SDS011;18351;47.560;9.708;2022-11-15T05:28:35;49.63;;;32.42;;
31782;SDS011;18351;47.560;9.708;2022-11-15T05:31:10;39.38;;;24.65;;
31782;SDS011;18351;47.560;9.708;2022-11-15T05:33:39;36.85;;;21.27;;
31782;SDS011;18351;47.560;9.708;2022-11-15T05:36:09;47.03;;;27.50;;
31782;SDS011;18351;47.560;9.708;2022-11-15T05:38:42;38.15;;;23.42;;
31782;SDS011;18351;47.560;9.708;2022-11-15T05:41:09;34.50;;;21.85;;
31782;SDS011;18351;47.560;9.708;2022-11-15T05:43:36;37.17;;;23.45;;
31782;SDS011;18351;47.560;9.708;2022-11-15T05:46:04;42.20;;;29.90;;
31782;SDS011;18351;47.560;9.708;2022-11-15T05:48:30;39.60;;;25.58;;
31782;SDS011;18351;47.560;9.708;2022-11-15T05:50:57;37.63;;;24.10;;
31782;SDS011;18351;47.560;9.708;2022-11-15T05:53:23;29.05;;;18.88;;
31782;SDS011;18351;47.560;9.708;2022-11-15T05:55:50;31.83;;;17.27;;
31782;SDS011;18351;47.560;9.708;2022-11-15T05:58:16;38.50;;;21.92;;
31782;SDS011;18351;47.560;9.708;2022-11-15T06:00:43;44.25;;;29.35;;
31782;SDS011;18351;47.560;9.708;2022-11-15T06:03:09;39.60;;;24.05;;
31782;SDS011;18351;47.560;9.708;2022-11-15T06:05:35;33.75;;;20.98;;
31782;SDS011;18351;47.560;9.708;2022-11-15T06:08:00;43.03;;;22.75;;
31782;SDS011;18351;47.560;9.708;2022-11-15T06:10:26;38.22;;;22.92;;
31782;SDS011;18351;47.560;9.708;2022-11-15T06:13:01;35.90;;;20.65;;
31782;SDS011;18351;47.560;9.708;2022-11-15T06:15:28;28.17;;;16.48;;
31782;SDS011;18351;47.560;9.708;2022-11-15T06:17:57;25.17;;;14.60;;
31782;SDS011;18351;47.560;9.708;2022-11-15T06:20:24;27.65;;;15.27;;
31782;SDS011;18351;47.560;9.708;2022-11-15T06:22:50;22.42;;;14.73;;
31782;SDS011;18351;47.560;9.708;2022-11-15T06:25:16;22.48;;;13.77;;
31782;SDS011;18351;47.560;9.708;2022-11-15T06:27:41;35.70;;;20.65;;
31782;SDS011;18351;47.560;9.708;2022-11-15T06:30:07;36.60;;;18.50;;
31782;SDS011;18351;47.560;9.708;2022-11-15T06:32:33;29.60;;;16.00;;
31782;SDS011;18351;47.560;9.708;2022-11-15T06:34:58;23.27;;;14.05;;
31782;SDS011;18351;47.560;9.708;2022-11-15T06:37:24;21.33;;;13.15;;
31782;SDS011;18351;47.560;9.708;2022-11-15T06:39:50;18.10;;;11.38;;
31782;SDS011;18351;47.560;9.708;2022-11-15T06:42:15;22.40;;;11.77;;
31782;SDS011;18351;47.560;9.708;2022-11-15T06:44:41;16.48;;;10.95;;
31782;SDS011;18351;47.560;9.708;2022-11-15T06:47:06;18.17;;;10.50;;
31782;SDS011;18351;47.560;9.708;2022-11-15T06:49:32;28.20;;;11.20;;
31782;SDS011;18351;47.560;9.708;2022-11-15T06:51:57;34.00;;;12.57;;
31782;SDS011;18351;47.560;9.708;2022-11-15T06:54:23;44.63;;;26.42;;
31782;SDS011;18351;47.560;9.708;2022-11-15T06:56:48;29.25;;;17.73;;
31782;SDS011;18351;47.560;9.708;2022-11-15T06:59:14;32.67;;;16.40;;
31782;SDS011;18351;47.560;9.708;2022-11-15T07:01:39;26.02;;;17.30;;
31782;SDS011;18351;47.560;9.708;2022-11-15T07:04:05;23.85;;;14.00;;
31782;SDS011;18351;47.560;9.708;2022-11-15T07:06:30;15.75;;;11.43;;
31782;SDS011;18351;47.560;9.708;2022-11-15T07:08:56;18.20;;;8.93;;
31782;SDS011;18351;47.560;9.708;2022-11-15T07:11:22;13.23;;;9.32;;
31782;SDS011;18351;47.560;9.708;2022-11-15T07:13:47;14.07;;;8.70;;
31782;SDS011;18351;47.560;9.708;2022-11-15T07:16:13;15.73;;;8.23;;
31782;SDS011;18351;47.560;9.708;2022-11-15T07:18:38;11.10;;;7.70;;
31782;SDS011;18351;47.560;9.708;2022-11-15T07:21:05;13.80;;;7.68;;
31782;SDS011;18351;47.560;9.708;2022-11-15T07:23:32;14.02;;;8.48;;
31782;SDS011;18351;47.560;9.708;2022-11-15T07:26:00;10.25;;;7.50;;
31782;SDS011;18351;47.560;9.708;2022-11-15T07:28:26;12.20;;;8.27;;
31782;SDS011;18351;47.560;9.708;2022-11-15T07:30:52;14.70;;;8.20;;
31782;SDS011;18351;47.560;9.708;2022-11-15T07:33:18;23.95;;;8.93;;
31782;SDS011;18351;47.560;9.708;2022-11-15T07:35:43;19.33;;;8.80;;
31782;SDS011;18351;47.560;9.708;2022-11-15T07:38:11;12.85;;;8.65;;
31782;SDS011;18351;47.560;9.708;2022-11-15T07:40:37;12.35;;;8.20;;
31782;SDS011;18351;47.560;9.708;2022-11-15T07:43:03;11.10;;;7.85;;
31782;SDS011;18351;47.560;9.708;2022-11-15T07:45:30;14.43;;;8.27;;
31782;SDS011;18351;47.560;9.708;2022-11-15T07:47:58;20.98;;;8.50;;
31782;SDS011;18351;47.560;9.708;2022-11-15T07:50:24;12.75;;;8.50;;
31782;SDS011;18351;47.560;9.708;2022-11-15T07:52:54;13.05;;;8.02;;
31782;SDS011;18351;47.560;9.708;2022-11-15T07:55:21;12.68;;;8.13;;
31782;SDS011;18351;47.560;9.708;2022-11-15T07:57:52;11.25;;;7.72;;
31782;SDS011;18351;47.560;9.708;2022-11-15T08:00:18;11.18;;;7.65;;
31782;SDS011;18351;47.560;9.708;2022-11-15T08:02:44;12.98;;;8.00;;
31782;SDS011;18351;47.560;9.708;2022-11-15T08:05:10;13.65;;;7.53;;
31782;SDS011;18351;47.560;9.708;2022-11-15T08:07:35;12.63;;;8.23;;
31782;SDS011;18351;47.560;9.708;2022-11-15T08:10:03;16.08;;;8.30;;
31782;SDS011;18351;47.560;9.708;2022-11-15T08:12:30;12.55;;;8.00;;
31782;SDS011;18351;47.560;9.708;2022-11-15T08:14:56;13.13;;;9.07;;
31782;SDS011;18351;47.560;9.708;2022-11-15T08:17:22;16.52;;;10.00;;
31782;SDS011;18351;47.560;9.708;2022-11-15T08:19:49;18.02;;;9.52;;
31782;SDS011;18351;47.560;9.708;2022-11-15T08:22:14;14.38;;;8.75;;
31782;SDS011;18351;47.560;9.708;2022-11-15T08:24:40;15.55;;;8.77;;
31782;SDS011;18351;47.560;9.708;2022-11-15T08:27:06;16.08;;;8.63;;
31782;SDS011;18351;47.560;9.708;2022-11-15T08:29:39;13.68;;;8.10;;
31782;SDS011;18351;47.560;9.708;2022-11-15T08:32:12;11.02;;;7.65;;
31782;SDS011;18351;47.560;9.708;2022-11-15T08:34:38;13.30;;;8.02;;
31782;SDS011;18351;47.560;9.708;2022-11-15T08:37:03;15.82;;;8.38;;
31782;SDS011;18351;47.560;9.708;2022-11-15T08:39:29;12.68;;;7.38;;
31782;SDS011;18351;47.560;9.708;2022-11-15T08:41:55;12.05;;;7.78;;
31782;SDS011;18351;47.560;9.708;2022-11-15T08:44:20;13.77;;;7.13;;
31782;SDS011;18351;47.560;9.708;2022-11-15T08:46:46;17.77;;;7.30;;
31782;SDS011;18351;47.560;9.708;2022-11-15T08:49:12;16.67;;;7.38;;
31782;SDS011;18351;47.560;9.708;2022-11-15T08:51:37;14.25;;;7.38;;
31782;SDS011;18351;47.560;9.708;2022-11-15T08:54:03;10.20;;;6.85;;
31782;SDS011;18351;47.560;9.708;2022-11-15T08:56:28;11.50;;;7.30;;
31782;SDS011;18351;47.560;9.708;2022-11-15T08:58:54;13.45;;;7.70;;
31782;SDS011;18351;47.560;9.708;2022-11-15T09:01:20;11.70;;;7.43;;
31782;SDS011;18351;47.560;9.708;2022-11-15T09:03:47;11.07;;;7.72;;
31782;SDS011;18351;47.560;9.708;2022-11-15T09:06:12;11.65;;;7.85;;
31782;SDS011;18351;47.560;9.708;2022-11-15T09:08:38;13.30;;;8.32;;
31782;SDS011;18351;47.560;9.708;2022-11-15T09:11:04;15.48;;;8.02;;
31782;SDS011;18351;47.560;9.708;2022-11-15T09:13:31;11.15;;;7.82;;
31782;SDS011;18351;47.560;9.708;2022-11-15T09:15:57;11.82;;;7.88;;
31782;SDS011;18351;47.560;9.708;2022-11-15T09:18:24;11.65;;;8.13;;
31782;SDS011;18351;47.560;9.708;2022-11-15T09:20:50;15.48;;;8.68;;
31782;SDS011;18351;47.560;9.708;2022-11-15T09:23:15;11.55;;;8.13;;
31782;SDS011;18351;47.560;9.708;2022-11-15T09:25:41;9.38;;;7.28;;
31782;SDS011;18351;47.560;9.708;2022-11-15T09:28:06;10.90;;;7.00;;
31782;SDS011;18351;47.560;9.708;2022-11-15T09:30:33;11.35;;;7.68;;
31782;SDS011;18351;47.560;9.708;2022-11-15T09:32:58;11.30;;;7.55;;
31782;SDS011;18351;47.560;9.708;2022-11-15T09:35:31;11.45;;;7.40;;
31782;SDS011;18351;47.560;9.708;2022-11-15T09:37:57;12.27;;;7.82;;
31782;SDS011;18351;47.560;9.708;2022-11-15T09:40:22;14.57;;;8.05;;
31782;SDS011;18351;47.560;9.708;2022-11-15T09:43:06;9.10;;;6.90;;
31782;SDS011;18351;47.560;9.708;2022-11-15T09:51:31;14.85;;;8.15;;
31782;SDS011;18351;47.560;9.708;2022-11-15T09:54:34;12.20;;;8.27;;
31782;SDS011;18351;47.560;9.708;2022-11-15T09:57:14;9.68;;;7.30;;
31782;SDS011;18351;47.560;9.708;2022-11-15T09:59:55;12.00;;;8.63;;
31782;SDS011;18351;47.560;9.708;2022-11-15T10:05:03;19.40;;;10.48;;
31782;SDS011;18351;47.560;9.708;2022-11-15T10:07:42;16.02;;;9.95;;
31782;SDS011;18351;47.560;9.708;2022-11-15T10:13:16;15.65;;;11.73;;
31782;SDS011;18351;47.560;9.708;2022-11-15T10:15:48;16.73;;;10.93;;
31782;SDS011;18351;47.560;9.708;2022-11-15T10:20:59;16.23;;;12.25;;
31782;SDS011;18351;47.560;9.708;2022-11-15T10:23:38;17.65;;;12.90;;
31782;SDS011;18351;47.560;9.708;2022-11-15T10:26:04;17.10;;;11.52;;
31782;SDS011;18351;47.560;9.708;2022-11-15T10:28:34;14.60;;;11.43;;
31782;SDS011;18351;47.560;9.708;2022-11-15T10:31:00;17.77;;;10.95;;
31782;SDS011;18351;47.560;9.708;2022-11-15T10:41:13;17.20;;;11.27;;
31782;SDS011;18351;47.560;9.708;2022-11-15T10:43:39;18.17;;;12.25;;
31782;SDS011;18351;47.560;9.708;2022-11-15T10:46:22;14.25;;;10.85;;
31782;SDS011;18351;47.560;9.708;2022-11-15T10:48:48;15.93;;;12.02;;
31782;SDS011;18351;47.560;9.708;2022-11-15T10:51:19;16.73;;;12.35;;
31782;SDS011;18351;47.560;9.708;2022-11-15T10:53:53;18.88;;;12.15;;
31782;SDS011;18351;47.560;9.708;2022-11-15T10:56:20;16.80;;;12.43;;
31782;SDS011;18351;47.560;9.708;2022-11-15T10:58:51;17.88;;;13.00;;
31782;SDS011;18351;47.560;9.708;2022-11-15T11:01:27;19.27;;;12.63;;
31782;SDS011;18351;47.560;9.708;2022-11-15T11:04:02;20.95;;;12.77;;
31782;SDS011;18351;47.560;9.708;2022-11-15T11:06:29;18.80;;;13.10;;
31782;SDS011;18351;47.560;9.708;2022-11-15T11:09:05;23.35;;;14.32;;
31782;SDS011;18351;47.560;9.708;2022-11-15T11:11:45;19.08;;;13.35;;
31782;SDS011;18351;47.560;9.708;2022-11-15T11:14:23;19.75;;;14.73;;
31782;SDS011;18351;47.560;9.708;2022-11-15T11:27:43;26.25;;;17.85;;
31782;SDS011;18351;47.560;9.708;2022-11-15T11:30:22;25.42;;;17.50;;
31782;SDS011;18351;47.560;9.708;2022-11-15T11:35:38;22.27;;;15.98;;
31782;SDS011;18351;47.560;9.708;2022-11-15T11:47:24;25.02;;;16.92;;
31782;SDS011;18351;47.560;9.708;2022-11-15T11:49:56;24.92;;;17.10;;
31782;SDS011;18351;47.560;9.708;2022-11-15T11:52:34;24.25;;;17.70;;
31782;SDS011;18351;47.560;9.708;2022-11-15T12:00:24;26.13;;;18.67;;
31782;SDS011;18351;47.560;9.708;2022-11-15T12:03:03;25.40;;;18.30;;
31782;SDS011;18351;47.560;9.708;2022-11-15T12:05:40;28.60;;;19.05;;
31782;SDS011;18351;47.560;9.708;2022-11-15T12:10:53;24.85;;;17.35;;
31782;SDS011;18351;47.560;9.708;2022-11-15T12:13:31;21.35;;;15.02;;
31782;SDS011;18351;47.560;9.708;2022-11-15T12:16:04;21.50;;;15.02;;
31782;SDS011;18351;47.560;9.708;2022-11-15T12:18:51;21.38;;;15.35;;
31782;SDS011;18351;47.560;9.708;2022-11-15T12:21:24;22.00;;;14.15;;
31782;SDS011;18351;47.560;9.708;2022-11-15T12:24:04;19.83;;;15.25;;
31782;SDS011;18351;47.560;9.708;2022-11-15T12:26:41;23.67;;;15.77;;
31782;SDS011;18351;47.560;9.708;2022-11-15T12:29:16;21.35;;;15.02;;
31782;SDS011;18351;47.560;9.708;2022-11-15T12:31:51;22.67;;;15.02;;
31782;SDS011;18351;47.560;9.708;2022-11-15T12:36:47;22.25;;;15.93;;
31782;SDS011;18351;47.560;9.708;2022-11-15T12:39:16;24.13;;;16.63;;
31782;SDS011;18351;47.560;9.708;2022-11-15T12:41:43;22.35;;;16.00;;
31782;SDS011;18351;47.560;9.708;2022-11-15T12:47:04;25.97;;;17.33;;
31782;SDS011;18351;47.560;9.708;2022-11-15T12:52:03;26.48;;;17.25;;
31782;SDS011;18351;47.560;9.708;2022-11-15T13:02:17;27.42;;;18.08;;
31782;SDS011;18351;47.560;9.708;2022-11-15T13:04:46;26.05;;;18.02;;
31782;SDS011;18351;47.560;9.708;2022-11-15T13:10:00;25.90;;;18.10;;
31782;SDS011;18351;47.560;9.708;2022-11-15T13:22:41;26.38;;;19.85;;
31782;SDS011;18351;47.560;9.708;2022-11-15T13:27:48;33.70;;;23.88;;
31782;SDS011;18351;47.560;9.708;2022-11-15T13:30:19;29.20;;;19.23;;
31782;SDS011;18351;47.560;9.708;2022-11-15T13:32:52;29.65;;;20.27;;
31782;SDS011;18351;47.560;9.708;2022-11-15T13:35:22;30.52;;;18.70;;
31782;SDS011;18351;47.560;9.708;2022-11-15T13:37:50;27.30;;;18.40;;
31782;SDS011;18351;47.560;9.708;2022-11-15T13:42:48;26.70;;;19.17;;
31782;SDS011;18351;47.560;9.708;2022-11-15T13:45:14;23.90;;;17.42;;
31782;SDS011;18351;47.560;9.708;2022-11-15T13:47:42;27.10;;;17.92;;
31782;SDS011;18351;47.560;9.708;2022-11-15T13:50:14;24.05;;;17.33;;
31782;SDS011;18351;47.560;9.708;2022-11-15T13:52:40;20.20;;;15.23;;
31782;SDS011;18351;47.560;9.708;2022-11-15T13:55:12;22.60;;;15.20;;
31782;SDS011;18351;47.560;9.708;2022-11-15T14:03:05;17.95;;;11.80;;
31782;SDS011;18351;47.560;9.708;2022-11-15T14:05:39;13.35;;;9.68;;
31782;SDS011;18351;47.560;9.708;2022-11-15T14:10:47;10.48;;;8.18;;
31782;SDS011;18351;47.560;9.708;2022-11-15T14:13:29;13.63;;;9.30;;
31782;SDS011;18351;47.560;9.708;2022-11-15T14:18:45;13.80;;;8.95;;
31782;SDS011;18351;47.560;9.708;2022-11-15T14:21:13;15.98;;;9.65;;
31782;SDS011;18351;47.560;9.708;2022-11-15T14:23:39;15.00;;;10.32;;
31782;SDS011;18351;47.560;9.708;2022-11-15T14:26:04;14.98;;;10.45;;
31782;SDS011;18351;47.560;9.708;2022-11-15T14:28:31;21.45;;;13.20;;
31782;SDS011;18351;47.560;9.708;2022-11-15T14:30:59;20.27;;;11.15;;
31782;SDS011;18351;47.560;9.708;2022-11-15T14:33:29;17.02;;;11.20;;
31782;SDS011;18351;47.560;9.708;2022-11-15T14:35:56;12.73;;;10.40;;
31782;SDS011;18351;47.560;9.708;2022-11-15T14:38:24;16.02;;;10.23;;
31782;SDS011;18351;47.560;9.708;2022-11-15T14:40:50;16.13;;;11.45;;
31782;SDS011;18351;47.560;9.708;2022-11-15T14:43:16;23.88;;;13.88;;
31782;SDS011;18351;47.560;9.708;2022-11-15T14:45:41;24.92;;;14.18;;
31782;SDS011;18351;47.560;9.708;2022-11-15T14:48:07;23.95;;;14.82;;
31782;SDS011;18351;47.560;9.708;2022-11-15T14:50:33;21.25;;;14.35;;
31782;SDS011;18351;47.560;9.708;2022-11-15T14:53:00;24.05;;;16.40;;
31782;SDS011;18351;47.560;9.708;2022-11-15T14:55:35;25.40;;;18.25;;
31782;SDS011;18351;47.560;9.708;2022-11-15T14:58:04;26.40;;;19.30;;
31782;SDS011;18351;47.560;9.708;2022-11-15T15:00:33;31.10;;;20.85;;
31782;SDS011;18351;47.560;9.708;2022-11-15T15:03:00;29.42;;;19.42;;
31782;SDS011;18351;47.560;9.708;2022-11-15T15:08:02;32.25;;;21.67;;
31782;SDS011;18351;47.560;9.708;2022-11-15T15:10:30;36.03;;;21.25;;
31782;SDS011;18351;47.560;9.708;2022-11-15T15:12:58;31.70;;;21.10;;
31782;SDS011;18351;47.560;9.708;2022-11-15T15:15:25;29.90;;;19.92;;
31782;SDS011;18351;47.560;9.708;2022-11-15T15:17:55;37.90;;;20.23;;
31782;SDS011;18351;47.560;9.708;2022-11-15T15:20:21;28.40;;;19.90;;
31782;SDS011;18351;47.560;9.708;2022-11-15T15:22:46;29.23;;;18.73;;
31782;SDS011;18351;47.560;9.708;2022-11-15T15:27:46;28.20;;;18.35;;
31782;SDS011;18351;47.560;9.708;2022-11-15T15:30:12;47.92;;;33.15;;
31782;SDS011;18351;47.560;9.708;2022-11-15T15:32:38;78.88;;;47.97;;
31782;SDS011;18351;47.560;9.708;2022-11-15T15:35:03;67.30;;;41.35;;
31782;SDS011;18351;47.560;9.708;2022-11-15T15:37:29;83.20;;;52.80;;
31782;SDS011;18351;47.560;9.708;2022-11-15T15:39:57;49.10;;;32.03;;
31782;SDS011;18351;47.560;9.708;2022-11-15T15:42:23;39.13;;;28.13;;
31782;SDS011;18351;47.560;9.708;2022-11-15T15:44:49;42.25;;;26.83;;
31782;SDS011;18351;47.560;9.708;2022-11-15T15:47:16;65.88;;;33.65;;
31782;SDS011;18351;47.560;9.708;2022-11-15T15:49:47;50.70;;;29.83;;
31782;SDS011;18351;47.560;9.708;2022-11-15T15:52:14;40.70;;;25.00;;
31782;SDS011;18351;47.560;9.708;2022-11-15T15:54:40;61.05;;;35.60;;
31782;SDS011;18351;47.560;9.708;2022-11-15T15:57:06;38.63;;;23.13;;
31782;SDS011;18351;47.560;9.708;2022-11-15T15:59:32;35.95;;;19.60;;
31782;SDS011;18351;47.560;9.708;2022-11-15T16:01:58;30.20;;;20.55;;
31782;SDS011;18351;47.560;9.708;2022-11-15T16:04:24;27.80;;;17.83;;
31782;SDS011;18351;47.560;9.708;2022-11-15T16:06:49;36.05;;;18.85;;
31782;SDS011;18351;47.560;9.708;2022-11-15T16:09:17;32.58;;;20.15;;
31782;SDS011;18351;47.560;9.708;2022-11-15T16:12:04;27.50;;;17.80;;
31782;SDS011;18351;47.560;9.708;2022-11-15T16:14:30;30.40;;;19.00;;
31782;SDS011;18351;47.560;9.708;2022-11-15T16:16:56;29.65;;;20.40;;
31782;SDS011;18351;47.560;9.708;2022-11-15T16:19:22;34.90;;;23.77;;
31782;SDS011;18351;47.560;9.708;2022-11-15T16:21:48;30.75;;;23.20;;
31782;SDS011;18351;47.560;9.708;2022-11-15T16:24:13;52.08;;;36.35;;
31782;SDS011;18351;47.560;9.708;2022-11-15T16:26:39;32.72;;;22.70;;
31782;SDS011;18351;47.560;9.708;2022-11-15T16:29:04;31.30;;;21.45;;
31782;SDS011;18351;47.560;9.708;2022-11-15T16:31:31;31.55;;;20.40;;
31782;SDS011;18351;47.560;9.708;2022-11-15T16:33:57;27.17;;;20.70;;
31782;SDS011;18351;47.560;9.708;2022-11-15T16:36:23;33.90;;;23.88;;
31782;SDS011;18351;47.560;9.708;2022-11-15T16:38:50;24.25;;;15.93;;
31782;SDS011;18351;47.560;9.708;2022-11-15T16:41:16;20.70;;;14.48;;
31782;SDS011;18351;47.560;9.708;2022-11-15T16:43:46;23.60;;;15.73;;
31782;SDS011;18351;47.560;9.708;2022-11-15T16:46:18;21.42;;;14.93;;
31782;SDS011;18351;47.560;9.708;2022-11-15T16:48:45;25.38;;;13.98;;
31782;SDS011;18351;47.560;9.708;2022-11-15T16:51:11;18.73;;;13.10;;
31782;SDS011;18351;47.560;9.708;2022-11-15T16:53:37;21.90;;;14.90;;
31782;SDS011;18351;47.560;9.708;2022-11-15T16:56:03;23.75;;;15.65;;